sensor_id;sensor_type;location;lat;lon;timestamp;pressure;altitude;pressure_sealevel;temperature;humidity
29907;BME280;16776;50.958;10.994;2023-05-12T00:01:09;98462.78;;;11.99;100.00
29907;BME280;16776;50.958;10.994;2023-05-12T00:03:36;98463.63;;;12.00;100.00
29907;BME280;16776;50.958;10.994;2023-05-12T00:06:03;98467.06;;;12.00;100.00
29907;BME280;16776;50.958;10.994;2023-05-12T00:08:31;98460.91;;;12.03;100.00
29907;BME280;16776;50.958;10.994;2023-05-12T00:10:57;98464.47;;;12.00;100.00
29907;BME280;16776;50.958;10.994;2023-05-12T00:13:24;98464.47;;;12.00;100.00
29907;BME280;16776;50.958;10.994;2023-05-12T00:15:51;98461.88;;;12.00;100.00
29907;BME280;16776;50.958;10.994;2023-05-12T00:18:20;98467.94;;;11.99;100.00
29907;BME280;16776;50.958;10.994;2023-05-12T00:20:47;98462.78;;;11.99;100.00
29907;BME280;16776;50.958;10.994;2023-05-12T00:23:14;98469.63;;;12.00;100.00
29907;BME280;16776;50.958;10.994;2023-05-12T00:25:41;98461.00;;;12.01;100.00
29907;BME280;16776;50.958;10.994;2023-05-12T00:28:08;98469.72;;;11.97;100.00
29907;BME280;16776;50.958;10.994;2023-05-12T00:30:35;98462.16;;;11.93;100.00
29907;BME280;16776;50.958;10.994;2023-05-12T00:33:01;98471.66;;;11.91;100.00
29907;BME280;16776;50.958;10.994;2023-05-12T00:35:28;98462.38;;;11.87;100.00
29907;BME280;16776;50.958;10.994;2023-05-12T00:37:54;98463.31;;;11.84;100.00
29907;BME280;16776;50.958;10.994;2023-05-12T00:40:21;98471.97;;;11.83;100.00
29907;BME280;16776;50.958;10.994;2023-05-12T00:42:49;98464.16;;;11.84;100.00
29907;BME280;16776;50.958;10.994;2023-05-12T00:45:15;98464.25;;;11.81;100.00
29907;BME280;16776;50.958;10.994;2023-05-12T00:47:43;98465.13;;;11.82;100.00
29907;BME280;16776;50.958;10.994;2023-05-12T00:50:10;98464.25;;;11.81;100.00
29907;BME280;16776;50.958;10.994;2023-05-12T00:52:36;98459.94;;;11.82;100.00
29907;BME280;16776;50.958;10.994;2023-05-12T00:55:04;98461.63;;;11.83;100.00
29907;BME280;16776;50.958;10.994;2023-05-12T00:57:32;98459.94;;;11.82;100.00
29907;BME280;16776;50.958;10.994;2023-05-12T01:00:00;98459.84;;;11.85;100.00
29907;BME280;16776;50.958;10.994;2023-05-12T01:02:26;98453.91;;;11.83;100.00
29907;BME280;16776;50.958;10.994;2023-05-12T01:04:53;98455.56;;;11.84;100.00
29907;BME280;16776;50.958;10.994;2023-05-12T01:07:21;98454.66;;;11.85;100.00
29907;BME280;16776;50.958;10.994;2023-05-12T01:09:52;98453.69;;;11.89;100.00
29907;BME280;16776;50.958;10.994;2023-05-12T01:12:19;98448.75;;;11.83;100.00
29907;BME280;16776;50.958;10.994;2023-05-12T01:14:46;98456.47;;;11.83;100.00
29907;BME280;16776;50.958;10.994;2023-05-12T01:17:16;98459.75;;;11.88;100.00
29907;BME280;16776;50.958;10.994;2023-05-12T01:19:46;98458.06;;;11.87;100.00
29907;BME280;16776;50.958;10.994;2023-05-12T01:22:14;98463.31;;;11.84;100.00
29907;BME280;16776;50.958;10.994;2023-05-12T01:24:45;98462.31;;;11.88;100.00
29907;BME280;16776;50.958;10.994;2023-05-12T01:27:15;98461.53;;;11.86;100.00
29907;BME280;16776;50.958;10.994;2023-05-12T01:29:43;98459.06;;;11.83;100.00
29907;BME280;16776;50.958;10.994;2023-05-12T01:32:11;98457.38;;;11.82;100.00
29907;BME280;16776;50.958;10.994;2023-05-12T01:34:38;98456.53;;;11.81;100.00
29907;BME280;16776;50.958;10.994;2023-05-12T01:37:06;98457.41;;;11.80;100.00
29907;BME280;16776;50.958;10.994;2023-05-12T01:39:33;98458.31;;;11.79;100.00
29907;BME280;16776;50.958;10.994;2023-05-12T01:42:00;98454.88;;;11.79;100.00
29907;BME280;16776;50.958;10.994;2023-05-12T01:44:28;98453.09;;;11.81;100.00
29907;BME280;16776;50.958;10.994;2023-05-12T01:46:55;98449.78;;;11.77;100.00
29907;BME280;16776;50.958;10.994;2023-05-12T01:49:21;98451.53;;;11.77;100.00
29907;BME280;16776;50.958;10.994;2023-05-12T01:51:48;98456.69;;;11.77;100.00
29907;BME280;16776;50.958;10.994;2023-05-12T01:54:14;98455.00;;;11.76;100.00
29907;BME280;16776;50.958;10.994;2023-05-12T01:56:41;98460.16;;;11.76;100.00
29907;BME280;16776;50.958;10.994;2023-05-12T01:59:08;98455.91;;;11.75;100.00
29907;BME280;16776;50.958;10.994;2023-05-12T02:01:35;98454.16;;;11.75;100.00
29907;BME280;16776;50.958;10.994;2023-05-12T02:04:02;98455.97;;;11.72;100.00
29907;BME280;16776;50.958;10.994;2023-05-12T02:06:29;98455.97;;;11.72;100.00
29907;BME280;16776;50.958;10.994;2023-05-12T02:08:56;98450.91;;;11.70;100.00
29907;BME280;16776;50.958;10.994;2023-05-12T02:11:23;98460.38;;;11.70;100.00
29907;BME280;16776;50.958;10.994;2023-05-12T02:13:50;98458.69;;;11.69;100.00
29907;BME280;16776;50.958;10.994;2023-05-12T02:16:20;98457.00;;;11.68;100.00
29907;BME280;16776;50.958;10.994;2023-05-12T02:18:48;98462.09;;;11.69;100.00
29907;BME280;16776;50.958;10.994;2023-05-12T02:21:15;98471.66;;;11.66;100.00
29907;BME280;16776;50.958;10.994;2023-05-12T02:23:41;98470.94;;;11.62;100.00
29907;BME280;16776;50.958;10.994;2023-05-12T02:26:08;98474.38;;;11.63;100.00
29907;BME280;16776;50.958;10.994;2023-05-12T02:28:34;98464.94;;;11.62;100.00
29907;BME280;16776;50.958;10.994;2023-05-12T02:31:01;98477.84;;;11.62;100.00
29907;BME280;16776;50.958;10.994;2023-05-12T02:33:28;98474.41;;;11.61;100.00
29907;BME280;16776;50.958;10.994;2023-05-12T02:35:56;98464.94;;;11.62;100.00
29907;BME280;16776;50.958;10.994;2023-05-12T02:38:23;98471.88;;;11.58;100.00
29907;BME280;16776;50.958;10.994;2023-05-12T02:40:50;98471.06;;;11.58;100.00
29907;BME280;16776;50.958;10.994;2023-05-12T02:43:16;98470.22;;;11.57;100.00
29907;BME280;16776;50.958;10.994;2023-05-12T02:45:43;98461.69;;;11.55;100.00
29907;BME280;16776;50.958;10.994;2023-05-12T02:48:09;98464.31;;;11.54;100.00
29907;BME280;16776;50.958;10.994;2023-05-12T02:50:36;98449.94;;;11.47;100.00
29907;BME280;16776;50.958;10.994;2023-05-12T02:53:04;98460.94;;;11.52;100.00
29907;BME280;16776;50.958;10.994;2023-05-12T02:55:31;98468.78;;;11.49;100.00
29907;BME280;16776;50.958;10.994;2023-05-12T02:57:58;98466.28;;;11.45;100.00
29907;BME280;16776;50.958;10.994;2023-05-12T03:00:25;98465.56;;;11.42;100.00
29907;BME280;16776;50.958;10.994;2023-05-12T03:02:53;98467.25;;;11.43;100.00
29907;BME280;16776;50.958;10.994;2023-05-12T03:05:20;98465.72;;;11.37;100.00
29907;BME280;16776;50.958;10.994;2023-05-12T03:07:47;98455.69;;;11.28;100.00
29907;BME280;16776;50.958;10.994;2023-05-12T03:10:15;98465.84;;;11.33;100.00
29907;BME280;16776;50.958;10.994;2023-05-12T03:12:42;98470.34;;;11.26;100.00
29907;BME280;16776;50.958;10.994;2023-05-12T03:15:09;98472.19;;;11.23;100.00
29907;BME280;16776;50.958;10.994;2023-05-12T03:17:36;98463.00;;;11.14;100.00
29907;BME280;16776;50.958;10.994;2023-05-12T03:20:04;98463.09;;;11.13;100.00
29907;BME280;16776;50.958;10.994;2023-05-12T03:22:30;98459.88;;;11.06;100.00
29907;BME280;16776;50.958;10.994;2023-05-12T03:24:58;98464.22;;;11.04;100.00
29907;BME280;16776;50.958;10.994;2023-05-12T03:27:26;98470.28;;;11.01;100.00
29907;BME280;16776;50.958;10.994;2023-05-12T03:29:54;98472.13;;;10.98;100.00
29907;BME280;16776;50.958;10.994;2023-05-12T03:32:21;98473.22;;;10.91;100.00
29907;BME280;16776;50.958;10.994;2023-05-12T03:34:48;98470.78;;;10.86;100.00
29907;BME280;16776;50.958;10.994;2023-05-12T03:37:14;98462.31;;;10.81;100.00
29907;BME280;16776;50.958;10.994;2023-05-12T03:39:41;98464.16;;;10.78;100.00
29907;BME280;16776;50.958;10.994;2023-05-12T03:42:08;98465.16;;;10.74;100.00
29907;BME280;16776;50.958;10.994;2023-05-12T03:44:35;98467.72;;;10.74;100.00
29907;BME280;16776;50.958;10.994;2023-05-12T03:47:02;98463.47;;;10.73;100.00
29907;BME280;16776;50.958;10.994;2023-05-12T03:49:29;98470.13;;;10.80;100.00
29907;BME280;16776;50.958;10.994;2023-05-12T03:51:55;98467.16;;;10.92;100.00
29907;BME280;16776;50.958;10.994;2023-05-12T03:54:22;98473.63;;;11.05;100.00
29907;BME280;16776;50.958;10.994;2023-05-12T03:56:48;98461.28;;;11.15;100.00
29907;BME280;16776;50.958;10.994;2023-05-12T03:59:15;98467.09;;;11.21;100.00
29907;BME280;16776;50.958;10.994;2023-05-12T04:01:43;98470.31;;;11.28;100.00
29907;BME280;16776;50.958;10.994;2023-05-12T04:04:09;98472.03;;;11.27;100.00
29907;BME280;16776;50.958;10.994;2023-05-12T04:06:36;98476.34;;;11.27;100.00
29907;BME280;16776;50.958;10.994;2023-05-12T04:09:03;98473.00;;;11.25;100.00
29907;BME280;16776;50.958;10.994;2023-05-12T04:11:29;98468.91;;;11.19;100.00
29907;BME280;16776;50.958;10.994;2023-05-12T04:13:56;98470.72;;;11.16;100.00
29907;BME280;16776;50.958;10.994;2023-05-12T04:16:22;98473.41;;;11.13;100.00
29907;BME280;16776;50.958;10.994;2023-05-12T04:18:50;98478.56;;;11.13;100.00
29907;BME280;16776;50.958;10.994;2023-05-12T04:21:17;98478.69;;;11.08;100.00
29907;BME280;16776;50.958;10.994;2023-05-12T04:23:43;98475.31;;;11.06;100.00
29907;BME280;16776;50.958;10.994;2023-05-12T04:26:10;98479.66;;;11.04;100.00
29907;BME280;16776;50.958;10.994;2023-05-12T04:28:36;98488.28;;;11.03;100.00
29907;BME280;16776;50.958;10.994;2023-05-12T04:31:03;98483.25;;;11.00;100.00
29907;BME280;16776;50.958;10.994;2023-05-12T04:33:30;98485.91;;;10.97;100.00
29907;BME280;16776;50.958;10.994;2023-05-12T04:35:58;98483.31;;;10.97;100.00
29907;BME280;16776;50.958;10.994;2023-05-12T04:38:25;98492.03;;;10.93;100.00
29907;BME280;16776;50.958;10.994;2023-05-12T04:40:56;98491.09;;;10.95;100.00
29907;BME280;16776;50.958;10.994;2023-05-12T04:43:23;98463.31;;;10.77;100.00
29907;BME280;16776;50.958;10.994;2023-05-12T04:45:49;98486.09;;;10.91;100.00
29907;BME280;16776;50.958;10.994;2023-05-12T04:48:18;98483.50;;;10.91;100.00
29907;BME280;16776;50.958;10.994;2023-05-12T04:50:45;98491.13;;;10.94;100.00
29907;BME280;16776;50.958;10.994;2023-05-12T04:53:13;98491.94;;;10.96;100.00
29907;BME280;16776;50.958;10.994;2023-05-12T04:55:40;98488.50;;;10.95;100.00
29907;BME280;16776;50.958;10.994;2023-05-12T04:58:07;98486.78;;;10.96;100.00
29907;BME280;16776;50.958;10.994;2023-05-12T05:00:33;98488.50;;;10.95;100.00
29907;BME280;16776;50.958;10.994;2023-05-12T05:03:00;98491.97;;;10.94;100.00
29907;BME280;16776;50.958;10.994;2023-05-12T05:05:26;98491.97;;;10.94;100.00
29907;BME280;16776;50.958;10.994;2023-05-12T05:07:53;98492.91;;;10.93;100.00
29907;BME280;16776;50.958;10.994;2023-05-12T05:10:21;98492.91;;;10.93;100.00
29907;BME280;16776;50.958;10.994;2023-05-12T05:12:47;98493.81;;;10.91;100.00
29907;BME280;16776;50.958;10.994;2023-05-12T05:15:14;98499.78;;;10.93;100.00
29907;BME280;16776;50.958;10.994;2023-05-12T05:17:41;98497.19;;;10.93;100.00
29907;BME280;16776;50.958;10.994;2023-05-12T05:20:10;98502.25;;;10.96;100.00
29907;BME280;16776;50.958;10.994;2023-05-12T05:22:37;98514.31;;;10.94;100.00
29907;BME280;16776;50.958;10.994;2023-05-12T05:25:04;98487.25;;;10.81;100.00
29907;BME280;16776;50.958;10.994;2023-05-12T05:27:32;98517.72;;;10.96;100.00
29907;BME280;16776;50.958;10.994;2023-05-12T05:29:59;98511.72;;;10.95;100.00
29907;BME280;16776;50.958;10.994;2023-05-12T05:32:25;98517.72;;;10.96;100.00
29907;BME280;16776;50.958;10.994;2023-05-12T05:34:52;98508.16;;;10.99;100.00
29907;BME280;16776;50.958;10.994;2023-05-12T05:37:19;98510.63;;;11.02;100.00
29907;BME280;16776;50.958;10.994;2023-05-12T05:39:45;98512.19;;;11.08;100.00
29907;BME280;16776;50.958;10.994;2023-05-12T05:42:12;98514.63;;;11.13;100.00
29907;BME280;16776;50.958;10.994;2023-05-12T05:44:41;98510.06;;;11.21;100.00
29907;BME280;16776;50.958;10.994;2023-05-12T05:47:07;98508.25;;;11.24;100.00
29907;BME280;16776;50.958;10.994;2023-05-12T05:49:34;98504.59;;;11.31;100.00
29907;BME280;16776;50.958;10.994;2023-05-12T05:52:00;98504.28;;;11.40;100.00
29907;BME280;16776;50.958;10.994;2023-05-12T05:54:27;98505.78;;;11.48;100.00
29907;BME280;16776;50.958;10.994;2023-05-12T05:56:54;98511.53;;;11.56;100.00
29907;BME280;16776;50.958;10.994;2023-05-12T05:59:20;98517.34;;;11.64;100.00
29907;BME280;16776;50.958;10.994;2023-05-12T06:01:48;98512.69;;;11.73;100.00
29907;BME280;16776;50.958;10.994;2023-05-12T06:04:15;98524.53;;;11.79;100.00
29907;BME280;16776;50.958;10.994;2023-05-12T06:06:41;98525.13;;;11.87;100.00
29907;BME280;16776;50.958;10.994;2023-05-12T06:09:08;98527.56;;;11.92;100.00
29907;BME280;16776;50.958;10.994;2023-05-12T06:11:36;98530.72;;;12.00;100.00
29907;BME280;16776;50.958;10.994;2023-05-12T06:14:03;98531.41;;;12.05;100.00
29907;BME280;16776;50.958;10.994;2023-05-12T06:16:30;98532.00;;;12.13;100.00
29907;BME280;16776;50.958;10.994;2023-05-12T06:18:58;98534.38;;;12.19;100.00
29907;BME280;16776;50.958;10.994;2023-05-12T06:21:24;98530.72;;;12.24;100.00
29907;BME280;16776;50.958;10.994;2023-05-12T06:23:51;98539.72;;;12.38;100.00
29907;BME280;16776;50.958;10.994;2023-05-12T06:26:19;98536.59;;;12.53;100.00
29907;BME280;16776;50.958;10.994;2023-05-12T06:28:45;98536.97;;;12.67;100.00
29907;BME280;16776;50.958;10.994;2023-05-12T06:31:12;98523.03;;;12.71;100.00
29907;BME280;16776;50.958;10.994;2023-05-12T06:33:39;98533.50;;;12.91;100.00
29907;BME280;16776;50.958;10.994;2023-05-12T06:36:07;98529.41;;;13.08;100.00
29907;BME280;16776;50.958;10.994;2023-05-12T06:38:34;98536.81;;;13.17;100.00
29907;BME280;16776;50.958;10.994;2023-05-12T06:41:01;98527.75;;;13.28;100.00
29907;BME280;16776;50.958;10.994;2023-05-12T06:43:27;98526.41;;;13.40;100.00
29907;BME280;16776;50.958;10.994;2023-05-12T06:45:54;98525.91;;;13.52;100.00
29907;BME280;16776;50.958;10.994;2023-05-12T06:48:21;98521.16;;;13.63;100.00
29907;BME280;16776;50.958;10.994;2023-05-12T06:50:48;98517.31;;;13.73;100.00
29907;BME280;16776;50.958;10.994;2023-05-12T06:53:16;98527.94;;;13.88;100.00
29907;BME280;16776;50.958;10.994;2023-05-12T06:55:44;98522.38;;;13.97;100.00
29907;BME280;16776;50.958;10.994;2023-05-12T06:58:11;98525.44;;;14.06;100.00
29907;BME280;16776;50.958;10.994;2023-05-12T07:00:43;98527.56;;;14.17;100.00
29907;BME280;16776;50.958;10.994;2023-05-12T07:03:09;98525.47;;;14.25;100.00
29907;BME280;16776;50.958;10.994;2023-05-12T07:05:36;98525.16;;;14.33;100.00
29907;BME280;16776;50.958;10.994;2023-05-12T07:08:03;98524.78;;;14.40;100.00
29907;BME280;16776;50.958;10.994;2023-05-12T07:10:31;98528.72;;;14.50;100.00
29907;BME280;16776;50.958;10.994;2023-05-12T07:12:59;98528.56;;;14.53;100.00
29907;BME280;16776;50.958;10.994;2023-05-12T07:15:26;98531.72;;;14.60;100.00
29907;BME280;16776;50.958;10.994;2023-05-12T07:17:52;98538.38;;;14.66;100.00
29907;BME280;16776;50.958;10.994;2023-05-12T07:20:19;98537.34;;;14.70;100.00
29907;BME280;16776;50.958;10.994;2023-05-12T07:22:46;98535.38;;;14.75;100.00
29907;BME280;16776;50.958;10.994;2023-05-12T07:25:13;98535.16;;;14.79;100.00
29907;BME280;16776;50.958;10.994;2023-05-12T07:27:41;98536.56;;;14.86;100.00
29907;BME280;16776;50.958;10.994;2023-05-12T07:30:08;98537.28;;;14.90;100.00
29907;BME280;16776;50.958;10.994;2023-05-12T07:32:35;98531.81;;;14.96;100.00
29907;BME280;16776;50.958;10.994;2023-05-12T07:35:02;98534.97;;;15.02;100.00
29907;BME280;16776;50.958;10.994;2023-05-12T07:37:29;98532.94;;;15.09;100.00
29907;BME280;16776;50.958;10.994;2023-05-12T07:39:56;98529.34;;;15.12;100.00
29907;BME280;16776;50.958;10.994;2023-05-12T07:42:23;98535.81;;;15.22;100.00
29907;BME280;16776;50.958;10.994;2023-05-12T07:44:51;98531.84;;;15.32;100.00
29907;BME280;16776;50.958;10.994;2023-05-12T07:47:17;98527.41;;;15.35;100.00
29907;BME280;16776;50.958;10.994;2023-05-12T07:49:44;98527.00;;;15.43;100.00
29907;BME280;16776;50.958;10.994;2023-05-12T07:52:10;98529.31;;;15.49;100.00
29907;BME280;16776;50.958;10.994;2023-05-12T07:54:37;98523.91;;;15.54;100.00
29907;BME280;16776;50.958;10.994;2023-05-12T07:57:03;98525.59;;;15.55;100.00
29907;BME280;16776;50.958;10.994;2023-05-12T07:59:30;98537.28;;;15.63;100.00
29907;BME280;16776;50.958;10.994;2023-05-12T08:01:58;98535.16;;;15.71;100.00
29907;BME280;16776;50.958;10.994;2023-05-12T08:04:25;98534.91;;;15.76;100.00
29907;BME280;16776;50.958;10.994;2023-05-12T08:06:52;98544.88;;;15.85;100.00
29907;BME280;16776;50.958;10.994;2023-05-12T08:09:19;98544.50;;;15.93;100.00
29907;BME280;16776;50.958;10.994;2023-05-12T08:11:45;98542.25;;;16.02;100.00
29907;BME280;16776;50.958;10.994;2023-05-12T08:14:14;98537.66;;;16.07;100.00
29907;BME280;16776;50.958;10.994;2023-05-12T08:16:41;98541.22;;;16.24;100.00
29907;BME280;16776;50.958;10.994;2023-05-12T08:19:11;98546.44;;;16.39;100.00
29907;BME280;16776;50.958;10.994;2023-05-12T08:21:38;98541.44;;;16.52;100.00
29907;BME280;16776;50.958;10.994;2023-05-12T08:24:04;98539.22;;;16.62;100.00
29907;BME280;16776;50.958;10.994;2023-05-12T08:26:31;98540.84;;;16.80;100.00
29907;BME280;16776;50.958;10.994;2023-05-12T08:28:58;98547.16;;;16.91;100.00
29907;BME280;16776;50.958;10.994;2023-05-12T08:31:25;98539.63;;;17.03;100.00
29907;BME280;16776;50.958;10.994;2023-05-12T08:33:51;98541.75;;;17.12;100.00
29907;BME280;16776;50.958;10.994;2023-05-12T08:36:19;98549.78;;;17.23;100.00
29907;BME280;16776;50.958;10.994;2023-05-12T08:38:46;98552.97;;;17.28;100.00
29907;BME280;16776;50.958;10.994;2023-05-12T08:41:16;98549.88;;;17.37;100.00
29907;BME280;16776;50.958;10.994;2023-05-12T08:43:48;98556.56;;;17.41;100.00
29907;BME280;16776;50.958;10.994;2023-05-12T08:46:15;98554.16;;;17.38;100.00
29907;BME280;16776;50.958;10.994;2023-05-12T08:48:44;98559.88;;;17.45;100.00
29907;BME280;16776;50.958;10.994;2023-05-12T08:51:12;98559.78;;;17.46;100.00
29907;BME280;16776;50.958;10.994;2023-05-12T08:53:41;98563.69;;;17.53;100.00
29907;BME280;16776;50.958;10.994;2023-05-12T08:56:09;98546.66;;;17.48;100.00
29907;BME280;16776;50.958;10.994;2023-05-12T08:58:37;98551.28;;;17.58;100.00
29907;BME280;16776;50.958;10.994;2023-05-12T09:01:04;98551.19;;;17.60;100.00
29907;BME280;16776;50.958;10.994;2023-05-12T09:03:32;98554.88;;;17.71;100.00
29907;BME280;16776;50.958;10.994;2023-05-12T09:05:59;98556.81;;;17.84;100.00
29907;BME280;16776;50.958;10.994;2023-05-12T09:08:28;98558.69;;;17.96;100.00
29907;BME280;16776;50.958;10.994;2023-05-12T09:10:57;98560.75;;;18.05;100.00
29907;BME280;16776;50.958;10.994;2023-05-12T09:13:28;98555.38;;;18.08;100.00
29907;BME280;16776;50.958;10.994;2023-05-12T09:16:00;98557.22;;;18.06;100.00
29907;BME280;16776;50.958;10.994;2023-05-12T09:18:33;98559.84;;;18.06;100.00
29907;BME280;16776;50.958;10.994;2023-05-12T09:21:08;98559.47;;;17.98;100.00
29907;BME280;16776;50.958;10.994;2023-05-12T09:23:35;98558.50;;;17.99;100.00
29907;BME280;16776;50.958;10.994;2023-05-12T09:26:03;98560.03;;;18.03;100.00
29907;BME280;16776;50.958;10.994;2023-05-12T09:28:34;98557.22;;;18.06;100.00
29907;BME280;16776;50.958;10.994;2023-05-12T09:31:01;98552.38;;;18.00;100.00
29907;BME280;16776;50.958;10.994;2023-05-12T09:33:33;98560.75;;;18.05;100.00
29907;BME280;16776;50.958;10.994;2023-05-12T09:36:00;98558.50;;;17.99;100.00
29907;BME280;16776;50.958;10.994;2023-05-12T09:38:26;98555.75;;;18.02;100.00
29907;BME280;16776;50.958;10.994;2023-05-12T09:40:53;98561.44;;;18.08;100.00
29907;BME280;16776;50.958;10.994;2023-05-12T09:43:21;98553.06;;;18.17;100.00
29907;BME280;16776;50.958;10.994;2023-05-12T09:45:47;98558.66;;;18.26;100.00
29907;BME280;16776;50.958;10.994;2023-05-12T09:48:15;98553.56;;;18.38;100.00
29907;BME280;16776;50.958;10.994;2023-05-12T09:50:43;98558.00;;;18.52;100.00
29907;BME280;16776;50.958;10.994;2023-05-12T09:53:10;98554.47;;;18.67;100.00
29907;BME280;16776;50.958;10.994;2023-05-12T09:55:37;98550.34;;;18.77;100.00
29907;BME280;16776;50.958;10.994;2023-05-12T09:58:07;98560.31;;;18.99;100.00
29907;BME280;16776;50.958;10.994;2023-05-12T10:00:36;98556.38;;;19.06;100.00
29907;BME280;16776;50.958;10.994;2023-05-12T10:03:09;98548.88;;;19.14;100.00
29907;BME280;16776;50.958;10.994;2023-05-12T10:05:38;98551.28;;;19.19;100.00
29907;BME280;16776;50.958;10.994;2023-05-12T10:08:09;98549.94;;;19.26;100.00
29907;BME280;16776;50.958;10.994;2023-05-12T10:10:38;98552.63;;;19.39;100.00
29907;BME280;16776;50.958;10.994;2023-05-12T10:13:07;98551.63;;;19.54;100.00
29907;BME280;16776;50.958;10.994;2023-05-12T10:15:39;98545.19;;;19.72;99.19
29907;BME280;16776;50.958;10.994;2023-05-12T10:18:07;98552.53;;;19.80;99.98
29907;BME280;16776;50.958;10.994;2023-05-12T10:20:34;98540.66;;;19.88;100.00
29907;BME280;16776;50.958;10.994;2023-05-12T10:23:01;98546.66;;;20.03;99.44
29907;BME280;16776;50.958;10.994;2023-05-12T10:25:28;98538.94;;;20.14;98.87
29907;BME280;16776;50.958;10.994;2023-05-12T10:27:57;98541.66;;;20.25;99.58
29907;BME280;16776;50.958;10.994;2023-05-12T10:30:26;98549.75;;;20.35;98.30
29907;BME280;16776;50.958;10.994;2023-05-12T10:32:54;98544.50;;;20.47;99.24
29907;BME280;16776;50.958;10.994;2023-05-12T10:35:30;98547.84;;;20.62;99.02
29907;BME280;16776;50.958;10.994;2023-05-12T10:38:00;98543.38;;;20.64;98.65
29907;BME280;16776;50.958;10.994;2023-05-12T10:40:26;98534.56;;;20.65;97.84
29907;BME280;16776;50.958;10.994;2023-05-12T10:42:57;98542.81;;;20.84;98.27
29907;BME280;16776;50.958;10.994;2023-05-12T10:45:23;98541.97;;;20.84;96.24
29907;BME280;16776;50.958;10.994;2023-05-12T10:47:50;98542.81;;;20.84;96.20
29907;BME280;16776;50.958;10.994;2023-05-12T10:50:26;98537.06;;;20.92;96.32
29907;BME280;16776;50.958;10.994;2023-05-12T10:52:53;98538.72;;;20.80;97.52
29907;BME280;16776;50.958;10.994;2023-05-12T10:55:30;98534.31;;;20.81;96.87
29907;BME280;16776;50.958;10.994;2023-05-12T10:58:03;98539.13;;;20.87;97.97
29907;BME280;16776;50.958;10.994;2023-05-12T11:00:31;98536.09;;;20.80;97.31
29907;BME280;16776;50.958;10.994;2023-05-12T11:03:11;98529.09;;;20.81;97.95
29907;BME280;16776;50.958;10.994;2023-05-12T11:05:39;98544.25;;;20.88;97.03
29907;BME280;16776;50.958;10.994;2023-05-12T11:08:07;98533.06;;;20.86;96.53
29907;BME280;16776;50.958;10.994;2023-05-12T11:10:33;98529.41;;;20.89;96.74
29907;BME280;16776;50.958;10.994;2023-05-12T11:13:01;98536.91;;;20.93;96.59
29907;BME280;16776;50.958;10.994;2023-05-12T11:15:28;98527.09;;;20.97;96.75
29907;BME280;16776;50.958;10.994;2023-05-12T11:17:55;98536.47;;;21.00;95.77
29907;BME280;16776;50.958;10.994;2023-05-12T11:20:23;98532.94;;;21.01;96.13
29907;BME280;16776;50.958;10.994;2023-05-12T11:22:51;98529.47;;;21.00;95.82
29907;BME280;16776;50.958;10.994;2023-05-12T11:25:18;98527.53;;;20.91;95.64
29907;BME280;16776;50.958;10.994;2023-05-12T11:27:45;98522.47;;;20.88;95.79
29907;BME280;16776;50.958;10.994;2023-05-12T11:30:13;98528.06;;;20.83;94.23
29907;BME280;16776;50.958;10.994;2023-05-12T11:32:40;98532.78;;;20.78;94.33
29907;BME280;16776;50.958;10.994;2023-05-12T11:35:11;98522.59;;;20.74;92.90
29907;BME280;16776;50.958;10.994;2023-05-12T11:37:39;98528.69;;;20.62;93.06
29907;BME280;16776;50.958;10.994;2023-05-12T11:40:18;98528.00;;;20.60;93.11
29907;BME280;16776;50.958;10.994;2023-05-12T11:42:46;98518.44;;;20.33;93.42
29907;BME280;16776;50.958;10.994;2023-05-12T11:45:19;98530.03;;;20.42;93.53
29907;BME280;16776;50.958;10.994;2023-05-12T11:47:46;98519.28;;;20.34;94.28
29907;BME280;16776;50.958;10.994;2023-05-12T11:50:19;98527.31;;;20.43;94.11
29907;BME280;16776;50.958;10.994;2023-05-12T11:52:46;98530.25;;;20.39;93.60
29907;BME280;16776;50.958;10.994;2023-05-12T11:55:20;98526.28;;;20.46;92.69
29907;BME280;16776;50.958;10.994;2023-05-12T11:57:56;98529.94;;;20.43;93.03
29907;BME280;16776;50.958;10.994;2023-05-12T12:00:27;98530.25;;;20.39;92.08
29907;BME280;16776;50.958;10.994;2023-05-12T12:03:04;98538.84;;;20.41;91.83
29907;BME280;16776;50.958;10.994;2023-05-12T12:05:32;98532.03;;;20.26;92.13
29907;BME280;16776;50.958;10.994;2023-05-12T12:08:04;98533.63;;;20.28;91.06
29907;BME280;16776;50.958;10.994;2023-05-12T12:10:32;98533.63;;;20.15;89.99
29907;BME280;16776;50.958;10.994;2023-05-12T12:12:59;98530.84;;;20.04;89.64
29907;BME280;16776;50.958;10.994;2023-05-12T12:15:26;98531.22;;;19.86;89.97
29907;BME280;16776;50.958;10.994;2023-05-12T12:17:53;98534.16;;;19.81;90.16
29907;BME280;16776;50.958;10.994;2023-05-12T12:20:19;98529.38;;;19.61;90.43
29907;BME280;16776;50.958;10.994;2023-05-12T12:22:46;98540.59;;;19.63;90.71
29907;BME280;16776;50.958;10.994;2023-05-12T12:25:13;98542.09;;;19.53;90.63
29907;BME280;16776;50.958;10.994;2023-05-12T12:27:41;98551.91;;;19.49;90.42
29907;BME280;16776;50.958;10.994;2023-05-12T12:30:08;98552.50;;;19.40;90.43
29907;BME280;16776;50.958;10.994;2023-05-12T12:32:35;98549.66;;;19.30;90.59
29907;BME280;16776;50.958;10.994;2023-05-12T12:35:02;98547.50;;;19.23;90.23
29907;BME280;16776;50.958;10.994;2023-05-12T12:37:30;98545.34;;;19.15;90.57
29907;BME280;16776;50.958;10.994;2023-05-12T12:39:57;98547.41;;;19.10;90.24
29907;BME280;16776;50.958;10.994;2023-05-12T12:42:24;98552.09;;;19.05;90.17
29907;BME280;16776;50.958;10.994;2023-05-12T12:44:52;98558.34;;;19.03;90.07